Time;durP1;ratioP1;P1;durP2;ratioP2;P2;SDS_P1;SDS_P2;PMS_P1;PMS_P2;Temp;Humidity;BMP_temperature;BMP_pressure;BME280_temperature;BME280_humidity;BME280_pressure;Samples;Min_cycle;Max_cycle;Signal;HPM_P1;HPM_P2
2023/01/14 00:01:30;;;;;;;;;2.33;2.33;;;;;10.12;68.85;101620.31;6274660;22;45256;-42
2023/01/14 00:03:56;;;;;;;;;8.00;2.00;;;;;10.06;68.07;101596.03;6275641;22;45309;-42
2023/01/14 00:06:24;;;;;;;;;5.33;4.33;;;;;10.14;68.56;101606.91;6276007;22;45338;-41
2023/01/14 00:08:58;;;;;;;;;5.00;2.33;;;;;10.10;68.79;101587.69;6274934;22;46193;-41
2023/01/14 00:11:45;;;;;;;;;5.00;3.00;;;;;10.14;69.14;101602.41;6274692;22;45267;-42
2023/01/14 00:14:10;;;;;;;;;7.00;3.67;;;;;10.04;69.32;101582.88;6274848;22;45791;-41
2023/01/14 00:16:35;;;;;;;;;7.67;4.00;;;;;10.14;69.06;101594.44;6275432;22;45284;-42
2023/01/14 00:19:01;;;;;;;;;3.33;1.00;;;;;10.13;70.38;101597.25;6274632;22;45333;-41
2023/01/14 00:21:27;;;;;;;;;2.67;2.00;;;;;10.15;70.41;101593.47;6275040;22;45281;-42
2023/01/14 00:23:53;;;;;;;;;5.33;3.00;;;;;10.16;70.15;101591.69;6274851;22;45237;-41
2023/01/14 00:26:19;;;;;;;;;6.33;4.33;;;;;10.15;70.48;101580.19;6274891;22;45298;-43
2023/01/14 00:28:49;;;;;;;;;8.00;6.67;;;;;10.13;70.80;101576.81;6274564;22;46247;-42
2023/01/14 00:31:19;;;;;;;;;3.00;3.00;;;;;10.07;72.14;101572.00;6274355;22;45324;-40
2023/01/14 00:33:45;;;;;;;;;7.00;4.33;;;;;9.98;72.01;101554.94;6274724;22;45177;-43
2023/01/14 00:36:13;;;;;;;;;8.33;2.67;;;;;10.09;72.75;101571.88;6274679;22;45333;-41
2023/01/14 00:38:39;;;;;;;;;3.67;1.00;;;;;10.04;73.85;101553.63;6273825;22;47138;-40
2023/01/14 00:41:11;;;;;;;;;7.00;2.00;;;;;10.10;73.33;101558.44;6246456;22;45368;-40
2023/01/14 00:43:39;;;;;;;;;2.33;2.00;;;;;10.11;75.08;101553.97;6274103;22;45398;-44
2023/01/14 00:46:06;;;;;;;;;5.67;5.00;;;;;9.99;74.57;101527.44;6274708;22;45268;-41
2023/01/14 00:48:36;;;;;;;;;3.00;1.00;;;;;10.03;75.60;101543.97;6273081;22;45350;-41
2023/01/14 00:51:01;;;;;;;;;2.00;2.00;;;;;10.05;75.61;101535.88;6274715;22;45337;-40
2023/01/14 00:53:27;;;;;;;;;1.00;1.00;;;;;10.04;74.16;101539.50;6274357;22;45355;-43
2023/01/14 00:55:53;;;;;;;;;4.67;1.33;;;;;10.02;77.31;101523.66;6275010;22;45349;-41
2023/01/14 00:58:19;;;;;;;;;5.00;3.00;;;;;10.01;77.70;101514.00;6274234;22;46139;-41
2023/01/14 01:00:45;;;;;;;;;3.00;3.00;;;;;9.97;77.10;101513.41;6274338;22;45330;-41
2023/01/14 01:03:11;;;;;;;;;6.00;2.00;;;;;9.90;77.00;101508.69;6274454;22;45271;-47
2023/01/14 01:05:36;;;;;;;;;6.00;2.00;;;;;9.87;78.11;101511.63;6275090;22;45507;-47
2023/01/14 01:08:04;;;;;;;;;13.33;5.00;;;;;9.87;78.78;101507.16;6275718;22;45317;-40
2023/01/14 01:10:30;;;;;;;;;5.67;5.67;;;;;9.79;78.53;101498.94;6275177;22;45644;-51
2023/01/14 01:12:55;;;;;;;;;11.00;6.00;;;;;9.85;79.48;101501.09;6276441;22;45229;-48
2023/01/14 01:15:20;;;;;;;;;6.00;3.67;;;;;9.86;79.13;101488.66;6276415;22;45408;-50
2023/01/14 01:17:45;;;;;;;;;4.00;2.00;;;;;9.83;78.97;101487.09;6275811;22;45974;-41
2023/01/14 01:20:11;;;;;;;;;3.67;3.67;;;;;9.81;78.70;101473.06;6275291;22;48025;-40
2023/01/14 01:22:36;;;;;;;;;6.33;5.67;;;;;9.85;79.26;101468.38;6275681;22;45209;-42
2023/01/14 01:25:02;;;;;;;;;13.33;6.67;;;;;9.85;78.92;101471.88;6276295;22;45249;-42
2023/01/14 01:27:27;;;;;;;;;12.00;6.00;;;;;9.86;78.67;101470.03;6275111;22;46432;-41
2023/01/14 01:29:53;;;;;;;;;2.67;2.67;;;;;9.86;79.11;101470.03;6275342;22;45305;-42
2023/01/14 01:32:19;;;;;;;;;6.00;5.00;;;;;9.84;78.69;101477.31;6275647;22;45183;-40
2023/01/14 01:34:44;;;;;;;;;7.00;7.00;;;;;9.83;78.86;101478.28;6275884;22;45242;-44
2023/01/14 01:37:10;;;;;;;;;7.67;5.33;;;;;9.83;79.66;101476.47;6248527;22;45255;-42
2023/01/14 01:39:35;;;;;;;;;9.33;5.33;;;;;9.85;79.83;101471.88;6274907;22;45230;-40
2023/01/14 01:42:01;;;;;;;;;4.00;3.67;;;;;9.87;79.43;101467.28;6274883;22;45432;-42
2023/01/14 01:44:26;;;;;;;;;3.00;3.00;;;;;9.88;80.08;101458.34;6276325;22;45345;-42
2023/01/14 01:46:51;;;;;;;;;8.67;5.33;;;;;9.93;80.43;101465.94;6275170;22;46290;-43
2023/01/14 01:49:23;;;;;;;;;5.67;2.67;;;;;9.93;80.48;101466.78;6275383;22;45362;-42
2023/01/14 01:51:51;;;;;;;;;4.33;3.00;;;;;9.96;80.53;101463.03;6276027;22;45428;-44
2023/01/14 01:54:25;;;;;;;;;6.00;3.67;;;;;9.99;79.64;101473.41;6275546;22;45268;-42
2023/01/14 01:56:51;;;;;;;;;5.67;3.67;;;;;10.03;80.31;101480.19;6275025;22;46268;-40
2023/01/14 01:59:21;;;;;;;;;5.00;3.00;;;;;10.04;81.49;101462.41;6275261;22;45271;-40
2023/01/14 02:01:47;;;;;;;;;3.67;2.33;;;;;10.06;81.09;101461.28;6275228;22;45376;-43
2023/01/14 02:04:13;;;;;;;;;2.33;2.33;;;;;9.61;81.64;101381.72;6275731;22;45321;-43
2023/01/14 02:06:38;;;;;;;;;2.67;2.67;;;;;10.10;82.15;101454.75;6275530;22;46067;-41
2023/01/14 02:09:06;;;;;;;;;5.67;3.67;;;;;10.12;82.13;101447.53;6275063;22;45352;-42
2023/01/14 02:11:39;;;;;;;;;5.33;3.67;;;;;10.13;81.69;101443.88;6275157;22;45375;-41
2023/01/14 02:14:34;;;;;;;;;5.00;2.67;;;;;10.15;81.86;101447.25;6275865;22;45341;-40
2023/01/14 02:17:11;;;;;;;;;5.00;2.00;;;;;10.16;82.02;101435.66;6247814;22;45305;-41
2023/01/14 02:19:56;;;;;;;;;5.00;2.33;;;;;10.16;82.52;101430.34;6275429;22;45293;-40
2023/01/14 02:22:33;;;;;;;;;2.67;2.33;;;;;10.13;83.20;101414.63;6275729;22;45245;-43
2023/01/14 02:25:07;;;;;;;;;5.67;3.00;;;;;10.16;83.29;101418.88;6275908;22;45335;-43
2023/01/14 02:27:58;;;;;;;;;3.00;1.33;;;;;10.17;83.22;101401.94;6275873;22;47051;-41
2023/01/14 02:30:31;;;;;;;;;2.00;2.00;;;;;10.20;79.92;101397.22;6275598;22;45194;-42
2023/01/14 02:33:19;;;;;;;;;3.00;3.00;;;;;10.24;82.63;101393.34;6275496;22;45219;-42
2023/01/14 02:36:12;;;;;;;;;3.67;2.00;;;;;10.25;81.40;101388.88;6275528;22;45204;-48
2023/01/14 02:39:24;;;;;;;;;4.00;2.00;;;;;10.27;82.30;101386.91;6275331;22;46547;-40
2023/01/14 02:45:02;;;;;;;;;1.00;0.67;;;;;10.34;82.61;101380.13;6275543;22;45384;-42
2023/01/14 02:47:28;;;;;;;;;2.00;1.00;;;;;10.37;82.93;101387.00;6275003;22;45364;-45
2023/01/14 02:49:57;;;;;;;;;1.00;1.00;;;;;10.39;82.68;101387.72;6275572;22;45254;-39
2023/01/14 02:52:24;;;;;;;;;2.67;1.33;;;;;10.44;82.22;101382.84;6274305;22;45315;-41
2023/01/14 02:55:01;;;;;;;;;1.00;1.00;;;;;10.46;82.59;101386.22;6275012;22;45361;-41
2023/01/14 02:57:32;;;;;;;;;5.67;1.00;;;;;10.48;81.89;101386.91;6275603;22;45308;-41
2023/01/14 03:00:12;;;;;;;;;1.00;1.00;;;;;10.51;81.81;101386.66;6275322;22;46143;-40
2023/01/14 03:02:54;;;;;;;;;2.00;0.00;;;;;10.53;80.37;101366.09;6274971;22;45585;-42
2023/01/14 03:05:31;;;;;;;;;6.00;1.00;;;;;10.49;82.00;101357.56;6274992;22;45258;-42
2023/01/14 03:08:15;;;;;;;;;3.00;1.00;;;;;10.56;81.34;101355.19;6274293;22;45252;-44
2023/01/14 03:10:55;;;;;;;;;1.00;1.00;;;;;10.56;81.08;101365.84;6275259;22;46218;-47
2023/01/14 03:13:30;;;;;;;;;0.67;0.33;;;;;10.57;81.75;101361.34;6273919;22;45304;-48
2023/01/14 03:16:04;;;;;;;;;2.00;1.00;;;;;10.55;80.79;101350.84;6275562;22;45183;-50
2023/01/14 03:18:47;;;;;;;;;0.00;0.00;;;;;10.60;80.91;101345.13;6275242;22;45233;-49
2023/01/14 03:21:23;;;;;;;;;0.00;0.00;;;;;10.61;80.42;101338.84;6274725;22;47120;-47
2023/01/14 03:23:57;;;;;;;;;0.67;0.67;;;;;10.63;80.94;101339.56;6274748;22;45261;-49
2023/01/14 03:26:26;;;;;;;;;1.00;1.00;;;;;10.66;79.92;101325.97;6274341;22;45356;-50
2023/01/14 03:28:56;;;;;;;;;3.00;0.00;;;;;10.68;80.10;101310.72;6274726;22;45313;-49
2023/01/14 03:31:26;;;;;;;;;0.00;0.00;;;;;10.65;80.05;101309.16;6274565;22;46218;-49
2023/01/14 03:33:58;;;;;;;;;3.00;0.00;;;;;10.69;80.18;101304.41;6274838;22;45186;-52
2023/01/14 03:36:27;;;;;;;;;0.00;0.00;;;;;10.71;79.13;101298.00;6275602;22;45262;-48
2023/01/14 03:38:59;;;;;;;;;2.67;1.00;;;;;10.68;80.19;101282.28;6275059;22;45418;-50
2023/01/14 03:44:26;;;;;;;;;1.00;0.67;;;;;10.68;79.32;101255.69;6274794;22;45212;-50
2023/01/14 03:46:52;;;;;;;;;2.00;0.67;;;;;10.67;79.72;101254.00;6274690;22;45325;-46
2023/01/14 03:49:18;;;;;;;;;1.00;1.00;;;;;10.69;79.41;101259.19;6274967;22;45356;-49
2023/01/14 03:51:53;;;;;;;;;0.00;0.00;;;;;10.68;79.34;101258.34;6275047;22;45721;-42
2023/01/14 03:54:29;;;;;;;;;1.00;1.00;;;;;10.73;79.61;101257.94;6275280;22;45249;-49
2023/01/14 03:57:05;;;;;;;;;1.00;0.00;;;;;10.74;78.75;101243.66;6274709;22;45183;-47
2023/01/14 03:59:36;;;;;;;;;3.00;1.00;;;;;10.72;79.11;101235.81;6275211;22;45422;-51
2023/01/14 04:02:03;;;;;;;;;1.33;1.00;;;;;10.66;79.04;101228.38;6274456;22;46182;-46
2023/01/14 04:04:31;;;;;;;;;6.33;1.33;;;;;10.72;79.13;101232.31;6275102;22;45203;-52
2023/01/14 04:06:57;;;;;;;;;0.67;0.67;;;;;10.79;79.27;101227.28;6275350;22;45485;-51
2023/01/14 04:09:22;;;;;;;;;4.00;2.00;;;;;10.81;78.66;101222.69;6275683;22;45266;-41
2023/01/14 04:11:47;;;;;;;;;2.67;1.33;;;;;10.79;79.09;101217.50;6274434;22;46183;-48
2023/01/14 04:16:56;;;;;;;;;2.33;1.33;;;;;10.81;78.60;101212.03;6274944;22;45330;-47
2023/01/14 04:19:22;;;;;;;;;2.33;1.00;;;;;10.79;78.84;101179.38;6274868;22;45167;-47
2023/01/14 04:21:47;;;;;;;;;7.00;2.00;;;;;10.80;78.52;101184.56;6274214;22;46544;-48
2023/01/14 04:24:12;;;;;;;;;2.67;1.67;;;;;10.79;78.36;101169.59;6274725;22;45306;-51
2023/01/14 04:26:38;;;;;;;;;3.00;2.00;;;;;10.76;78.48;101169.88;6274652;22;45627;-50
2023/01/14 04:29:03;;;;;;;;;6.33;3.00;;;;;10.77;78.15;101173.38;6275016;22;45096;-46
2023/01/14 04:31:28;;;;;;;;;1.00;1.00;;;;;10.78;78.35;101159.06;6274689;22;45261;-48
2023/01/14 04:33:53;;;;;;;;;7.00;1.67;;;;;10.78;78.99;101170.56;6274310;22;45262;-47
2023/01/14 04:36:19;;;;;;;;;3.00;1.00;;;;;10.80;78.71;101159.78;6274594;22;45336;-50
2023/01/14 04:38:44;;;;;;;;;3.33;2.33;;;;;10.76;78.39;101139.75;6275313;22;45269;-48
2023/01/14 04:42:26;;;;;;;;;8.00;4.33;;;;;10.71;78.37;101140.16;6275285;22;45963;-51
2023/01/14 04:43:57;;;;;;;;;3.00;1.67;;;;;10.78;78.83;101154.59;6274900;22;45389;-48
2023/01/14 04:46:23;;;;;;;;;4.67;1.67;;;;;10.79;78.79;101152.75;6275638;22;45434;-51
2023/01/14 04:48:48;;;;;;;;;4.00;1.00;;;;;10.73;78.30;101139.03;6275389;22;45406;-49
2023/01/14 04:51:14;;;;;;;;;7.67;3.33;;;;;10.81;78.54;101142.84;6275377;22;46884;-48
2023/01/14 04:53:39;;;;;;;;;3.00;2.00;;;;;10.83;78.56;101138.19;6275283;22;45245;-50
2023/01/14 04:56:04;;;;;;;;;3.67;1.00;;;;;10.86;78.06;101132.59;6248058;22;45198;-49
2023/01/14 04:58:30;;;;;;;;;9.67;2.67;;;;;10.84;78.78;101131.91;6275566;22;45400;-50
2023/01/14 05:00:55;;;;;;;;;1.00;1.00;;;;;10.83;78.40;101117.78;6275070;22;51420;-49
2023/01/14 05:03:20;;;;;;;;;3.00;1.00;;;;;10.83;78.12;101108.94;6276087;22;45103;-51
2023/01/14 05:05:46;;;;;;;;;3.00;2.67;;;;;10.83;78.20;101111.59;6274586;22;45107;-44
2023/01/14 05:08:12;;;;;;;;;1.67;1.00;;;;;10.83;77.85;101096.50;6275759;22;45360;-52
2023/01/14 05:10:39;;;;;;;;;1.00;1.00;;;;;10.79;78.28;101083.56;6275804;22;46171;-49
2023/01/14 05:13:07;;;;;;;;;2.00;1.00;;;;;10.79;78.01;101095.09;6275416;22;45381;-48
2023/01/14 05:15:36;;;;;;;;;6.33;1.00;;;;;10.78;78.02;101103.19;6248408;22;45268;-44
2023/01/14 05:18:02;;;;;;;;;2.00;1.00;;;;;10.80;77.91;101096.75;6276208;22;45264;-49
2023/01/14 05:20:28;;;;;;;;;3.67;1.00;;;;;10.82;77.87;101110.75;6275129;22;47312;-42
2023/01/14 05:23:02;;;;;;;;;1.33;0.67;;;;;10.83;77.95;101112.47;6275957;22;45244;-51
2023/01/14 05:25:29;;;;;;;;;5.00;1.00;;;;;10.85;77.72;101096.34;6275679;22;45324;-47
2023/01/14 05:27:58;;;;;;;;;4.33;1.67;;;;;10.85;77.40;101091.84;6275684;22;45265;-50
2023/01/14 05:30:24;;;;;;;;;1.00;1.00;;;;;10.84;77.19;101094.66;6275169;22;46206;-47
2023/01/14 05:32:49;;;;;;;;;2.33;1.67;;;;;10.85;77.21;101091.00;6275308;22;45158;-51
2023/01/14 05:35:16;;;;;;;;;1.67;1.00;;;;;10.85;77.51;101064.41;6275871;22;45127;-49
2023/01/14 05:37:42;;;;;;;;;6.67;1.00;;;;;10.82;77.33;101064.66;6276247;22;45281;-50
2023/01/14 05:40:08;;;;;;;;;1.00;0.00;;;;;10.86;77.29;101066.06;6274461;22;46185;-49
2023/01/14 05:48:01;;;;;;;;;4.33;2.67;;;;;10.85;76.62;101048.44;6276079;22;45198;-44
2023/01/14 05:50:26;;;;;;;;;2.33;0.67;;;;;10.83;76.77;101037.94;6275036;22;45324;-47
2023/01/14 05:52:51;;;;;;;;;0.33;0.33;;;;;10.85;76.94;101035.97;6275892;22;45319;-42
2023/01/14 05:55:17;;;;;;;;;1.00;1.00;;;;;10.86;76.87;101027.00;6275618;22;45138;-41
2023/01/14 05:57:42;;;;;;;;;1.33;0.00;;;;;10.86;76.45;101029.66;6276461;22;45233;-51
2023/01/14 06:06:20;;;;;;;;;2.00;1.00;;;;;10.86;76.56;101021.66;6276039;22;46841;-43
2023/01/14 06:08:21;;;;;;;;;3.00;2.00;;;;;10.83;76.12;101007.81;6276067;22;45440;-49
2023/01/14 06:10:49;;;;;;;;;2.00;2.00;;;;;10.82;76.37;101014.09;6274931;22;46243;-49
2023/01/14 06:13:14;;;;;;;;;1.00;1.00;;;;;10.82;76.14;101009.63;6275219;22;45231;-42
2023/01/14 06:15:40;;;;;;;;;1.67;0.00;;;;;10.82;76.02;101011.44;6274799;22;45309;-45
2023/01/14 06:18:09;;;;;;;;;2.00;1.00;;;;;10.79;76.17;101006.41;6275484;22;45257;-50
2023/01/14 06:20:38;;;;;;;;;0.67;0.67;;;;;10.82;75.87;101006.13;6275614;22;45846;-48
2023/01/14 06:23:05;;;;;;;;;2.00;1.00;;;;;10.80;75.77;100985.00;6247393;22;45282;-51
2023/01/14 06:25:30;;;;;;;;;1.67;1.00;;;;;10.79;75.73;100971.81;6275307;22;45344;-41
2023/01/14 06:27:57;;;;;;;;;2.00;2.00;;;;;10.68;75.85;100973.66;6275174;22;45407;-42
2023/01/14 06:30:23;;;;;;;;;2.00;1.00;;;;;10.76;75.96;100972.13;6273540;22;46295;-48
2023/01/14 06:32:48;;;;;;;;;2.00;1.67;;;;;10.76;76.00;100988.09;6275226;22;45341;-44
2023/01/14 06:35:13;;;;;;;;;1.00;0.00;;;;;10.74;76.25;100981.09;6275274;22;45228;-42
2023/01/14 06:37:43;;;;;;;;;2.00;0.00;;;;;10.75;76.18;100968.63;6275565;22;45162;-49
2023/01/14 06:40:09;;;;;;;;;4.00;0.67;;;;;10.74;75.91;100969.56;6274414;22;46911;-42
2023/01/14 06:42:34;;;;;;;;;1.00;0.00;;;;;10.63;75.70;100938.66;6273302;22;45306;-42
2023/01/14 06:45:00;;;;;;;;;2.33;1.00;;;;;10.70;76.24;100944.22;6275356;22;45320;-45
2023/01/14 06:47:25;;;;;;;;;4.33;1.00;;;;;10.71;76.29;100944.09;6275053;22;45298;-51
2023/01/14 06:49:50;;;;;;;;;2.67;1.00;;;;;10.70;76.15;100946.91;6275159;22;46195;-44
2023/01/14 06:52:15;;;;;;;;;8.00;1.00;;;;;10.71;76.65;100954.75;6274016;22;45322;-50
2023/01/14 06:54:41;;;;;;;;;2.67;1.00;;;;;10.69;76.09;100938.06;6275096;22;45288;-42
2023/01/14 06:57:06;;;;;;;;;2.00;1.00;;;;;10.70;76.26;100934.47;6275590;22;45254;-46
2023/01/14 06:59:31;;;;;;;;;1.67;1.67;;;;;10.69;76.20;100930.09;6274298;22;49489;-42
2023/01/14 07:01:57;;;;;;;;;5.00;1.00;;;;;10.71;76.34;100930.81;6275074;22;45260;-40
2023/01/14 07:04:22;;;;;;;;;1.00;1.00;;;;;10.67;76.56;100924.09;6275343;22;45242;-42
2023/01/14 07:06:49;;;;;;;;;0.00;0.00;;;;;10.69;76.58;100924.78;6275131;22;45321;-45
2023/01/14 07:09:14;;;;;;;;;3.00;1.33;;;;;10.71;76.50;100922.81;6275497;22;45195;-47
2023/01/14 07:11:41;;;;;;;;;3.00;3.00;;;;;10.73;76.67;100918.19;6275219;22;45253;-43
2023/01/14 07:14:07;;;;;;;;;6.00;1.33;;;;;10.73;76.39;100894.22;6272983;22;45270;-43
2023/01/14 07:16:32;;;;;;;;;2.33;1.00;;;;;10.73;76.67;100904.03;6275658;22;45144;-45
2023/01/14 07:18:58;;;;;;;;;1.67;0.33;;;;;10.74;76.31;100895.94;6274840;22;46043;-42
2023/01/14 07:21:23;;;;;;;;;3.67;0.33;;;;;10.73;76.31;100926.16;6275270;22;45312;-40
2023/01/14 07:23:50;;;;;;;;;1.67;1.00;;;;;10.74;76.57;100889.75;6274784;22;45421;-41
2023/01/14 07:26:16;;;;;;;;;1.33;0.67;;;;;10.74;76.66;100895.94;6274903;22;45557;-44
2023/01/14 07:28:42;;;;;;;;;2.67;2.67;;;;;10.76;76.50;100881.66;6275048;22;45341;-48
2023/01/14 07:31:07;;;;;;;;;1.00;1.00;;;;;10.74;77.01;100893.28;6274612;22;45305;-43
2023/01/14 07:33:33;;;;;;;;;1.00;0.00;;;;;10.76;76.65;100877.16;6275618;22;45288;-46
2023/01/14 07:35:58;;;;;;;;;6.33;1.67;;;;;10.73;76.58;100872.13;6275478;22;45300;-41
2023/01/14 07:38:23;;;;;;;;;1.00;0.33;;;;;10.48;76.64;100839.00;6274257;22;47206;-44
2023/01/14 07:40:49;;;;;;;;;1.00;1.00;;;;;10.77;76.86;100859.38;6275007;22;45134;-52
2023/01/14 07:43:15;;;;;;;;;1.00;1.00;;;;;10.75;77.37;100870.16;6275336;22;45285;-49
2023/01/14 07:45:41;;;;;;;;;5.00;1.00;;;;;10.66;76.79;100839.94;6275727;22;45436;-46
2023/01/14 07:48:07;;;;;;;;;4.00;0.33;;;;;10.72;77.21;100850.00;6274524;22;45490;-50
2023/01/14 07:50:32;;;;;;;;;1.00;1.00;;;;;10.71;76.97;100848.31;6274596;22;45227;-48
2023/01/14 07:52:59;;;;;;;;;1.00;0.00;;;;;10.75;76.92;100840.91;6274965;22;45209;-51
2023/01/14 07:55:26;;;;;;;;;1.00;0.00;;;;;10.74;77.20;100828.56;6275123;22;45365;-52
2023/01/14 07:57:51;;;;;;;;;0.67;0.67;;;;;10.76;77.02;100836.41;6274269;22;46398;-53
2023/01/14 08:00:17;;;;;;;;;0.33;0.33;;;;;10.77;76.97;100836.25;6274226;22;45243;-49
2023/01/14 08:02:43;;;;;;;;;0.00;0.00;;;;;10.74;76.89;100842.72;6275258;22;45321;-52
2023/01/14 08:05:08;;;;;;;;;2.00;2.00;;;;;10.74;77.52;100852.50;6275581;22;45368;-53
2023/01/14 08:07:34;;;;;;;;;2.00;1.00;;;;;10.72;77.73;100835.84;6274511;22;46092;-54
2023/01/14 08:09:59;;;;;;;;;1.00;1.00;;;;;10.73;77.66;100835.69;6273682;22;45246;-52
2023/01/14 08:12:24;;;;;;;;;1.00;0.67;;;;;10.73;78.13;100834.88;6274413;22;45300;-43
2023/01/14 08:14:50;;;;;;;;;2.67;0.00;;;;;10.69;77.68;100828.16;6274708;22;45298;-52
2023/01/14 08:17:15;;;;;;;;;5.00;1.33;;;;;10.70;78.72;100796.09;6274357;22;45913;-53
2023/01/14 08:19:40;;;;;;;;;1.00;1.00;;;;;10.70;78.34;100819.19;6275030;22;45286;-53
2023/01/14 08:22:06;;;;;;;;;2.00;0.00;;;;;10.68;78.61;100792.75;6274846;22;45663;-54
2023/01/14 08:24:31;;;;;;;;;2.00;0.00;;;;;10.69;78.47;100802.38;6275294;22;45318;-52
2023/01/14 08:26:56;;;;;;;;;2.00;1.00;;;;;10.59;79.76;100780.31;6246223;22;46731;-53
2023/01/14 08:29:22;;;;;;;;;0.67;0.67;;;;;10.65;79.33;100786.88;6274477;22;47076;-53
2023/01/14 08:31:52;;;;;;;;;1.00;1.00;;;;;10.64;79.53;100791.34;6273884;22;45403;-53
2023/01/14 08:34:17;;;;;;;;;2.00;1.00;;;;;10.62;79.58;100805.75;6274961;22;45236;-53
2023/01/14 08:36:44;;;;;;;;;2.00;1.00;;;;;10.65;80.22;100782.38;6274770;22;45268;-52
2023/01/14 08:39:09;;;;;;;;;5.00;0.00;;;;;10.66;79.70;100772.56;6274299;22;45257;-53
2023/01/14 08:41:35;;;;;;;;;4.00;0.33;;;;;10.65;80.47;100770.91;6274984;22;45228;-52
2023/01/14 08:44:01;;;;;;;;;1.00;1.00;;;;;10.63;80.02;100781.69;6274771;22;45665;-53
2023/01/14 08:46:26;;;;;;;;;1.00;1.00;;;;;10.66;80.60;100770.78;6273710;22;45997;-51
2023/01/14 08:48:51;;;;;;;;;1.00;1.00;;;;;10.65;81.13;100795.69;6274705;22;45352;-52
2023/01/14 08:51:18;;;;;;;;;2.33;0.67;;;;;10.65;80.57;100782.38;6246820;22;45270;-51
2023/01/14 08:53:43;;;;;;;;;2.33;1.00;;;;;10.68;80.85;100776.78;6274109;22;45472;-52
2023/01/14 08:56:14;;;;;;;;;0.67;0.67;;;;;10.73;80.38;100773.66;6272867;22;47998;-50
2023/01/14 08:58:39;;;;;;;;;3.33;1.33;;;;;10.74;80.96;100776.19;6274231;22;45310;-50
2023/01/14 09:01:07;;;;;;;;;1.67;0.00;;;;;10.65;81.01;100747.78;6273825;22;45278;-48
2023/01/14 09:03:35;;;;;;;;;1.00;0.00;;;;;10.72;81.05;100762.19;6274057;22;45370;-51
2023/01/14 09:06:03;;;;;;;;;0.33;0.33;;;;;10.72;81.21;100753.38;6273794;22;47275;-53
2023/01/14 09:19:30;;;;;;;;;1.00;1.00;;;;;10.85;80.80;100710.44;6274186;22;45325;-51
2023/01/14 09:21:56;;;;;;;;;1.67;1.00;;;;;10.92;80.97;100685.75;6274307;22;45295;-50
2023/01/14 09:24:21;;;;;;;;;5.00;1.00;;;;;10.96;81.76;100711.09;6274424;22;45336;-48
2023/01/14 09:26:46;;;;;;;;;1.00;0.00;;;;;10.95;81.68;100716.53;6274996;22;47292;-49
2023/01/14 09:29:11;;;;;;;;;1.00;1.00;;;;;10.97;82.47;100717.25;6273938;22;45240;-46
2023/01/14 09:31:37;;;;;;;;;2.00;0.00;;;;;10.99;82.69;100724.06;6275895;22;45716;-52
2023/01/14 09:34:02;;;;;;;;;2.67;1.00;;;;;11.01;81.88;100718.63;6248958;22;45315;-51
2023/01/14 09:36:29;;;;;;;;;3.67;2.00;;;;;11.03;81.94;100707.81;6275843;22;45310;-52
2023/01/14 09:38:55;;;;;;;;;0.00;0.00;;;;;11.04;81.77;100725.44;6275680;22;45213;-49
2023/01/14 09:41:33;;;;;;;;;1.00;1.00;;;;;11.04;82.47;100721.00;6273993;22;45287;-48
2023/01/14 09:44:00;;;;;;;;;2.00;0.00;;;;;11.04;83.13;100721.00;6275935;22;45301;-52
2023/01/14 09:46:27;;;;;;;;;1.33;1.00;;;;;11.05;83.08;100721.81;6275212;22;46125;-49
2023/01/14 09:48:55;;;;;;;;;0.33;0.33;;;;;11.06;82.87;100718.16;6275510;22;45142;-53
2023/01/14 09:51:50;;;;;;;;;2.33;1.00;;;;;11.04;83.06;100715.66;6275537;22;45358;-51
2023/01/14 09:54:25;;;;;;;;;1.67;0.00;;;;;11.10;82.92;100699.06;6275768;22;45277;-54
2023/01/14 09:57:03;;;;;;;;;2.00;0.00;;;;;11.12;83.17;100696.25;6274809;22;45338;-52
2023/01/14 09:59:37;;;;;;;;;1.67;1.00;;;;;11.15;82.58;100707.44;6275561;22;45245;-53
2023/01/14 10:02:14;;;;;;;;;1.33;0.67;;;;;11.17;82.70;100705.47;6275294;22;45245;-54
2023/01/14 10:05:01;;;;;;;;;2.00;1.00;;;;;11.22;82.40;100697.88;6276181;22;45345;-53
2023/01/14 10:07:29;;;;;;;;;3.00;1.00;;;;;11.26;82.98;100702.91;6275133;22;46185;-50
2023/01/14 10:09:57;;;;;;;;;1.00;1.00;;;;;11.23;82.30;100693.38;6275497;22;45380;-45
2023/01/14 10:12:29;;;;;;;;;4.00;1.00;;;;;11.37;82.54;100702.66;6274413;22;45294;-43
2023/01/14 10:14:59;;;;;;;;;3.00;1.00;;;;;11.43;82.16;100686.06;6275822;22;45321;-42
2023/01/14 10:17:33;;;;;;;;;1.67;1.67;;;;;11.46;82.17;100681.28;6274739;22;46913;-43
2023/01/14 10:20:08;;;;;;;;;1.00;1.00;;;;;11.50;81.69;100687.09;6275871;22;45350;-52
2023/01/14 10:22:39;;;;;;;;;0.00;0.00;;;;;11.52;81.65;100674.50;6275675;22;45329;-54
2023/01/14 10:25:15;;;;;;;;;0.00;0.00;;;;;11.53;82.06;100683.31;6276160;22;45353;-44
2023/01/14 10:27:41;;;;;;;;;1.67;1.00;;;;;11.53;81.70;100665.50;6275056;22;47123;-43
2023/01/14 10:30:20;;;;;;;;;5.67;4.67;;;;;11.56;81.91;100673.19;6274766;22;45301;-52
2023/01/14 10:32:49;;;;;;;;;0.00;0.00;;;;;11.55;81.25;100631.56;6275473;22;45610;-54
2023/01/14 10:35:17;;;;;;;;;1.00;1.00;;;;;11.58;81.57;100643.72;6275792;22;45309;-45
2023/01/14 10:37:42;;;;;;;;;1.00;1.00;;;;;11.58;81.66;100652.53;6274792;22;46503;-43
2023/01/14 10:40:21;;;;;;;;;4.33;2.00;;;;;11.59;81.75;100653.41;6274678;22;45254;-53
2023/01/14 10:42:46;;;;;;;;;0.67;0.67;;;;;11.59;82.40;100643.59;6272670;22;45306;-55
2023/01/14 10:45:12;;;;;;;;;3.00;3.00;;;;;11.59;81.58;100640.91;6275307;22;45353;-42
2023/01/14 10:47:39;;;;;;;;;1.33;1.33;;;;;11.56;82.84;100653.72;6274727;22;47032;-56
2023/01/14 10:50:23;;;;;;;;;1.00;0.67;;;;;11.60;82.40;100633.75;6275277;22;45315;-51
2023/01/14 10:52:53;;;;;;;;;0.00;0.00;;;;;11.61;82.72;100628.25;6275136;22;45293;-52
2023/01/14 10:55:22;;;;;;;;;1.00;1.00;;;;;11.55;82.48;100607.59;6275420;22;45314;-54
2023/01/14 10:58:26;;;;;;;;;1.00;1.00;;;;;11.62;81.92;100621.09;6274028;22;46255;-48
2023/01/14 11:00:59;;;;;;;;;0.00;0.00;;;;;11.61;81.93;100616.78;6120716;23;45315;-46
2023/01/14 11:03:28;;;;;;;;;1.00;1.00;;;;;11.62;82.29;100611.28;6121168;23;45395;-55
2023/01/14 11:06:08;;;;;;;;;3.00;2.00;;;;;11.62;82.29;100610.44;6121464;23;45224;-56
2023/01/14 11:09:00;;;;;;;;;2.67;2.00;;;;;11.64;83.25;100603.97;6121143;23;46155;-49
2023/01/14 11:11:37;;;;;;;;;5.00;1.00;;;;;11.61;82.41;100587.47;6118094;23;45480;-49
2023/01/14 11:14:18;;;;;;;;;3.00;3.00;;;;;11.65;82.85;100608.31;6096442;23;45633;-54
2023/01/14 11:16:44;;;;;;;;;2.00;2.00;;;;;11.66;82.76;100601.97;6121108;23;45468;-49
2023/01/14 11:19:15;;;;;;;;;2.00;1.67;;;;;11.66;82.31;100572.66;6120316;23;48281;-56
2023/01/14 11:21:46;;;;;;;;;1.00;1.00;;;;;11.68;82.59;100560.03;6120796;23;45305;-55
2023/01/14 11:24:35;;;;;;;;;1.00;1.00;;;;;11.69;82.71;100553.72;6121222;23;45248;-48
2023/01/14 11:27:23;;;;;;;;;1.33;1.33;;;;;11.69;82.46;100551.03;6121496;23;45294;-53
2023/01/14 11:29:59;;;;;;;;;2.00;2.00;;;;;11.69;83.27;100543.03;6120450;23;45387;-55
2023/01/14 11:32:33;;;;;;;;;1.00;1.00;;;;;11.62;82.75;100520.69;6121065;23;45221;-53
2023/01/14 11:35:04;;;;;;;;;2.67;2.67;;;;;11.71;82.38;100529.56;6121092;23;45343;-52
2023/01/14 11:37:36;;;;;;;;;2.67;1.00;;;;;11.70;82.82;100504.75;6270901;22;45251;-52
2023/01/14 11:40:03;;;;;;;;;1.00;1.00;;;;;11.71;83.02;100509.09;6246979;22;47527;-54
2023/01/14 11:42:31;;;;;;;;;5.33;2.00;;;;;11.73;82.97;100512.44;6273548;22;45335;-53
2023/01/14 11:45:11;;;;;;;;;0.33;0.33;;;;;11.77;82.57;100506.78;6274818;22;45254;-50
2023/01/14 11:47:51;;;;;;;;;1.00;1.00;;;;;11.77;82.75;100488.13;6274018;22;45263;-54
2023/01/14 11:50:24;;;;;;;;;1.67;1.00;;;;;11.70;82.79;100487.91;6248042;22;45282;-47
2023/01/14 11:53:03;;;;;;;;;3.67;3.00;;;;;11.77;82.96;100501.47;6275058;22;45307;-52
2023/01/14 11:55:32;;;;;;;;;1.33;1.00;;;;;11.77;83.48;100483.63;6275098;22;45306;-44
2023/01/14 11:58:19;;;;;;;;;4.00;2.00;;;;;11.78;82.97;100466.63;6275533;22;45425;-55
2023/01/14 12:00:55;;;;;;;;;2.67;1.67;;;;;11.79;83.65;100462.97;6275075;22;45290;-50
2023/01/14 12:03:37;;;;;;;;;2.33;1.00;;;;;11.79;83.50;100443.47;6274688;22;45179;-53
2023/01/14 12:06:12;;;;;;;;;2.67;2.00;;;;;11.83;83.54;100444.84;6274724;22;45360;-52
2023/01/14 12:08:42;;;;;;;;;2.00;2.00;;;;;11.84;83.70;100436.72;6275117;22;45273;-48